Vestal Center, New York
Current Conditions -  °F | °C
As of 9:21 AM on Thursday 27 Nov 2014 (Local Time) from KBGM Reporting Station
Light Snow Light Snow  
Wind Chill: 32°   Ceiling: 500
Heat Index: 36°   Visibility: 1.7mi
Dew Point: 24°   Wind: 5mph
Humidity: 62%   Direction: 300°WNW
Pressure: 29.96"   Gusts: NA
Location:  42.0463°N, 76.0314°W
Report Text: KBGM 271421Z 30004KT 1 3/4SM -SN OVC005 02/M04 A2996 RMK AO2 CIG 003V009 P0001 T00221044 $
Loading
Personal Weather Stations






























Interactive Weather Map New forecast layout! Learn more

10-Day Weather Forecast

Advertisements
Track Severe Weather on mobile